sensor_id;sensor_type;location;lat;lon;timestamp;pressure;altitude;pressure_sealevel;temperature;humidity
69780;BME280;57052;55.602;38.096;2023-04-08T00:00:18;101470.13;;;6.55;39.50
69780;BME280;57052;55.602;38.096;2023-04-08T00:02:44;101474.06;;;6.52;39.74
69780;BME280;57052;55.602;38.096;2023-04-08T00:05:10;101452.56;;;6.39;39.69
69780;BME280;57052;55.602;38.096;2023-04-08T00:07:35;101464.97;;;6.46;39.16
69780;BME280;57052;55.602;38.096;2023-04-08T00:10:02;101464.59;;;6.43;39.81
69780;BME280;57052;55.602;38.096;2023-04-08T00:12:28;101469.78;;;6.38;40.35
69780;BME280;57052;55.602;38.096;2023-04-08T00:14:53;101454.28;;;6.27;40.02
69780;BME280;57052;55.602;38.096;2023-04-08T00:17:19;101469.56;;;6.33;39.90
69780;BME280;57052;55.602;38.096;2023-04-08T00:19:45;101461.13;;;6.23;40.13
69780;BME280;57052;55.602;38.096;2023-04-08T00:22:10;101460.28;;;6.22;40.08
69780;BME280;57052;55.602;38.096;2023-04-08T00:24:36;101467.34;;;6.23;40.37
69780;BME280;57052;55.602;38.096;2023-04-08T00:27:02;101471.66;;;6.24;40.30
69780;BME280;57052;55.602;38.096;2023-04-08T00:29:28;101468.34;;;6.22;39.94
69780;BME280;57052;55.602;38.096;2023-04-08T00:31:54;101472.06;;;6.21;40.38
69780;BME280;57052;55.602;38.096;2023-04-08T00:34:19;101478.28;;;6.22;41.12
69780;BME280;57052;55.602;38.096;2023-04-08T00:36:45;101466.91;;;6.20;40.62
69780;BME280;57052;55.602;38.096;2023-04-08T00:39:12;101474.56;;;6.23;40.64
69780;BME280;57052;55.602;38.096;2023-04-08T00:41:38;101468.78;;;6.19;40.47
69780;BME280;57052;55.602;38.096;2023-04-08T00:44:04;101477.03;;;6.24;40.43
69780;BME280;57052;55.602;38.096;2023-04-08T00:46:30;101471.88;;;6.23;40.44
69780;BME280;57052;55.602;38.096;2023-04-08T00:48:59;101472.91;;;6.22;40.64
69780;BME280;57052;55.602;38.096;2023-04-08T00:51:28;101422.53;;;5.91;40.18
69780;BME280;57052;55.602;38.096;2023-04-08T00:53:53;101472.72;;;6.17;40.61
69780;BME280;57052;55.602;38.096;2023-04-08T00:56:20;101469.81;;;6.12;40.37
69780;BME280;57052;55.602;38.096;2023-04-08T00:58:46;101471.50;;;6.13;40.55
69780;BME280;57052;55.602;38.096;2023-04-08T01:01:19;101477.91;;;6.05;41.40
69780;BME280;57052;55.602;38.096;2023-04-08T01:06:37;101475.84;;;6.01;41.84
69780;BME280;57052;55.602;38.096;2023-04-08T01:09:08;101472.94;;;6.02;41.13
69780;BME280;57052;55.602;38.096;2023-04-08T01:11:37;101477.72;;;6.00;41.31
69780;BME280;57052;55.602;38.096;2023-04-08T01:14:06;101457.47;;;5.91;41.41
69780;BME280;57052;55.602;38.096;2023-04-08T01:16:36;101478.72;;;5.99;41.10
69780;BME280;57052;55.602;38.096;2023-04-08T01:19:04;101468.22;;;5.98;41.25
69780;BME280;57052;55.602;38.096;2023-04-08T01:21:32;101478.75;;;5.93;41.15
69780;BME280;57052;55.602;38.096;2023-04-08T01:24:08;101481.44;;;5.93;41.32
69780;BME280;57052;55.602;38.096;2023-04-08T01:26:36;101482.47;;;5.92;41.53
69780;BME280;57052;55.602;38.096;2023-04-08T01:29:03;101478.34;;;5.89;41.16
69780;BME280;57052;55.602;38.096;2023-04-08T01:31:30;101473.16;;;5.81;41.31
69780;BME280;57052;55.602;38.096;2023-04-08T01:33:56;101477.31;;;5.83;41.03
69780;BME280;57052;55.602;38.096;2023-04-08T01:36:24;101477.72;;;5.80;41.19
69780;BME280;57052;55.602;38.096;2023-04-08T01:38:50;101467.59;;;5.76;40.90
69780;BME280;57052;55.602;38.096;2023-04-08T01:41:17;101476.44;;;5.76;41.24
69780;BME280;57052;55.602;38.096;2023-04-08T01:43:44;101476.06;;;5.73;41.24
69780;BME280;57052;55.602;38.096;2023-04-08T01:46:11;101470.47;;;5.68;41.96
69780;BME280;57052;55.602;38.096;2023-04-08T01:48:39;101472.75;;;5.71;41.72
69780;BME280;57052;55.602;38.096;2023-04-08T01:51:05;101466.75;;;5.69;41.85
69780;BME280;57052;55.602;38.096;2023-04-08T01:53:32;101478.53;;;5.68;41.88
69780;BME280;57052;55.602;38.096;2023-04-08T01:56:03;101480.59;;;5.66;42.42
69780;BME280;57052;55.602;38.096;2023-04-08T01:58:33;101461.81;;;5.53;41.99
69780;BME280;57052;55.602;38.096;2023-04-08T02:01:01;101481.19;;;5.61;41.89
69780;BME280;57052;55.602;38.096;2023-04-08T02:03:29;101479.16;;;5.50;42.23
69780;BME280;57052;55.602;38.096;2023-04-08T02:05:55;101488.03;;;5.51;42.41
69780;BME280;57052;55.602;38.096;2023-04-08T02:08:21;101478.72;;;5.47;42.25
69780;BME280;57052;55.602;38.096;2023-04-08T02:10:46;101474.78;;;5.36;42.09
69780;BME280;57052;55.602;38.096;2023-04-08T02:13:12;101481.00;;;5.43;42.26
69780;BME280;57052;55.602;38.096;2023-04-08T02:15:41;101470.03;;;5.32;42.87
69780;BME280;57052;55.602;38.096;2023-04-08T02:18:15;101471.09;;;5.31;43.04
69780;BME280;57052;55.602;38.096;2023-04-08T02:20:47;101476.66;;;5.36;43.41
69780;BME280;57052;55.602;38.096;2023-04-08T02:23:19;101462.81;;;5.26;43.42
69780;BME280;57052;55.602;38.096;2023-04-08T02:25:46;101470.44;;;5.22;42.74
69780;BME280;57052;55.602;38.096;2023-04-08T02:28:13;101483.06;;;5.28;42.38
69780;BME280;57052;55.602;38.096;2023-04-08T02:30:48;101480.75;;;5.18;44.13
69780;BME280;57052;55.602;38.096;2023-04-08T02:33:17;101486.13;;;5.18;42.83
69780;BME280;57052;55.602;38.096;2023-04-08T02:35:44;101490.25;;;5.14;42.76
69780;BME280;57052;55.602;38.096;2023-04-08T02:38:10;101483.66;;;5.10;43.12
69780;BME280;57052;55.602;38.096;2023-04-08T02:40:36;101488.19;;;5.10;43.06
69780;BME280;57052;55.602;38.096;2023-04-08T02:43:02;101499.13;;;5.08;43.22
69780;BME280;57052;55.602;38.096;2023-04-08T02:45:36;101498.06;;;5.03;44.67
69780;BME280;57052;55.602;38.096;2023-04-08T02:48:02;101491.88;;;5.02;43.31
69780;BME280;57052;55.602;38.096;2023-04-08T02:50:28;101498.47;;;5.00;43.75
69780;BME280;57052;55.602;38.096;2023-04-08T02:52:54;101498.88;;;4.97;44.14
69780;BME280;57052;55.602;38.096;2023-04-08T02:55:20;101478.41;;;4.83;44.09
69780;BME280;57052;55.602;38.096;2023-04-08T02:57:46;101508.16;;;4.94;44.33
69780;BME280;57052;55.602;38.096;2023-04-08T03:00:13;101507.31;;;4.94;44.10
69780;BME280;57052;55.602;38.096;2023-04-08T03:02:38;101505.47;;;4.94;44.21
69780;BME280;57052;55.602;38.096;2023-04-08T03:05:04;101505.47;;;4.94;43.89
69780;BME280;57052;55.602;38.096;2023-04-08T03:07:31;101516.19;;;4.94;44.15
69780;BME280;57052;55.602;38.096;2023-04-08T03:09:56;101506.31;;;4.95;44.00
69780;BME280;57052;55.602;38.096;2023-04-08T03:12:22;101508.16;;;4.94;43.99
69780;BME280;57052;55.602;38.096;2023-04-08T03:14:48;101509.81;;;4.95;43.89
69780;BME280;57052;55.602;38.096;2023-04-08T03:17:14;101505.84;;;4.91;44.52
69780;BME280;57052;55.602;38.096;2023-04-08T03:19:39;101506.69;;;4.92;44.40
69780;BME280;57052;55.602;38.096;2023-04-08T03:22:05;101513.50;;;4.94;44.54
69780;BME280;57052;55.602;38.096;2023-04-08T03:24:30;101505.47;;;4.94;44.13
69780;BME280;57052;55.602;38.096;2023-04-08T03:26:56;101509.16;;;4.87;44.33
69780;BME280;57052;55.602;38.096;2023-04-08T03:29:22;101495.50;;;4.82;44.67
69780;BME280;57052;55.602;38.096;2023-04-08T03:31:47;101513.09;;;4.91;44.38
69780;BME280;57052;55.602;38.096;2023-04-08T03:34:13;101507.94;;;4.89;44.75
69780;BME280;57052;55.602;38.096;2023-04-08T03:36:38;101511.84;;;4.87;44.62
69780;BME280;57052;55.602;38.096;2023-04-08T03:39:04;101493.22;;;4.72;44.74
69780;BME280;57052;55.602;38.096;2023-04-08T03:41:30;101513.69;;;4.86;44.75
69780;BME280;57052;55.602;38.096;2023-04-08T03:43:56;101511.22;;;4.85;44.89
69780;BME280;57052;55.602;38.096;2023-04-08T03:46:22;101518.03;;;4.87;44.73
69780;BME280;57052;55.602;38.096;2023-04-08T03:48:48;101522.38;;;4.88;44.61
69780;BME280;57052;55.602;38.096;2023-04-08T03:51:13;101517.81;;;4.89;44.93
69780;BME280;57052;55.602;38.096;2023-04-08T03:53:39;101519.28;;;4.91;44.54
69780;BME280;57052;55.602;38.096;2023-04-08T03:56:05;101523.63;;;4.92;44.67
69780;BME280;57052;55.602;38.096;2023-04-08T03:58:31;101518.25;;;4.92;44.85
69780;BME280;57052;55.602;38.096;2023-04-08T04:00:56;101507.50;;;4.86;45.20
69780;BME280;57052;55.602;38.096;2023-04-08T04:03:22;101523.63;;;4.92;44.78
69780;BME280;57052;55.602;38.096;2023-04-08T04:05:48;101521.56;;;4.94;45.20
69780;BME280;57052;55.602;38.096;2023-04-08T04:08:13;101526.53;;;4.97;44.88
69780;BME280;57052;55.602;38.096;2023-04-08T04:10:39;101527.16;;;4.99;44.99
69780;BME280;57052;55.602;38.096;2023-04-08T04:13:04;101526.97;;;5.01;44.86
69780;BME280;57052;55.602;38.096;2023-04-08T04:15:30;101532.97;;;5.03;44.94
69780;BME280;57052;55.602;38.096;2023-04-08T04:17:55;101519.09;;;4.99;45.23
69780;BME280;57052;55.602;38.096;2023-04-08T04:20:21;101528.66;;;5.08;45.70
69780;BME280;57052;55.602;38.096;2023-04-08T04:22:47;101532.56;;;5.12;45.31
69780;BME280;57052;55.602;38.096;2023-04-08T04:25:12;101525.75;;;5.16;45.84
69780;BME280;57052;55.602;38.096;2023-04-08T04:27:38;101529.06;;;5.18;45.74
69780;BME280;57052;55.602;38.096;2023-04-08T04:30:04;101530.94;;;5.25;45.19
69780;BME280;57052;55.602;38.096;2023-04-08T04:32:30;101534.47;;;5.32;45.32
69780;BME280;57052;55.602;38.096;2023-04-08T04:34:55;101530.56;;;5.34;45.51
69780;BME280;57052;55.602;38.096;2023-04-08T04:37:21;101532.22;;;5.42;45.10
69780;BME280;57052;55.602;38.096;2023-04-08T04:39:47;101534.09;;;5.48;44.95
69780;BME280;57052;55.602;38.096;2023-04-08T04:42:12;101528.72;;;5.54;45.24
69780;BME280;57052;55.602;38.096;2023-04-08T04:44:38;101516.34;;;5.53;45.07
69780;BME280;57052;55.602;38.096;2023-04-08T04:47:04;101522.13;;;5.63;45.07
69780;BME280;57052;55.602;38.096;2023-04-08T04:49:29;101526.47;;;5.71;45.32
69780;BME280;57052;55.602;38.096;2023-04-08T04:51:55;101526.69;;;5.76;45.06
69780;BME280;57052;55.602;38.096;2023-04-08T04:54:20;101524.00;;;5.82;45.14
69780;BME280;57052;55.602;38.096;2023-04-08T04:56:46;101521.53;;;5.88;44.93
69780;BME280;57052;55.602;38.096;2023-04-08T04:59:12;101518.88;;;5.88;45.06
69780;BME280;57052;55.602;38.096;2023-04-08T05:01:37;101530.63;;;6.00;45.13
69780;BME280;57052;55.602;38.096;2023-04-08T05:04:05;101530.84;;;6.05;44.80
69780;BME280;57052;55.602;38.096;2023-04-08T05:06:31;101530.22;;;6.09;44.78
69780;BME280;57052;55.602;38.096;2023-04-08T05:08:56;101533.72;;;6.16;45.09
69780;BME280;57052;55.602;38.096;2023-04-08T05:11:22;101534.75;;;6.22;44.49
69780;BME280;57052;55.602;38.096;2023-04-08T05:13:47;101541.97;;;6.28;44.80
69780;BME280;57052;55.602;38.096;2023-04-08T05:16:13;101537.00;;;6.31;44.72
69780;BME280;57052;55.602;38.096;2023-04-08T05:18:38;101540.31;;;6.40;44.67
69780;BME280;57052;55.602;38.096;2023-04-08T05:21:04;101540.50;;;6.45;44.25
69780;BME280;57052;55.602;38.096;2023-04-08T05:23:30;101546.50;;;6.54;44.48
69780;BME280;57052;55.602;38.096;2023-04-08T05:25:55;101548.31;;;6.60;44.51
69780;BME280;57052;55.602;38.096;2023-04-08T05:28:21;101535.28;;;6.57;43.95
69780;BME280;57052;55.602;38.096;2023-04-08T05:30:50;101548.88;;;6.75;44.06
69780;BME280;57052;55.602;38.096;2023-04-08T05:33:16;101561.28;;;6.82;43.65
69780;BME280;57052;55.602;38.096;2023-04-08T05:35:42;101555.69;;;6.90;43.92
69780;BME280;57052;55.602;38.096;2023-04-08T05:38:08;101555.44;;;6.98;43.77
69780;BME280;57052;55.602;38.096;2023-04-08T05:40:33;101551.28;;;7.02;43.70
69780;BME280;57052;55.602;38.096;2023-04-08T05:42:59;101562.63;;;7.11;43.67
69780;BME280;57052;55.602;38.096;2023-04-08T05:45:27;101565.50;;;7.16;44.02
69780;BME280;57052;55.602;38.096;2023-04-08T05:47:52;101557.16;;;7.24;43.01
69780;BME280;57052;55.602;38.096;2023-04-08T05:50:18;101559.00;;;7.30;43.27
69780;BME280;57052;55.602;38.096;2023-04-08T05:52:44;101566.00;;;7.38;43.26
69780;BME280;57052;55.602;38.096;2023-04-08T05:55:10;101562.66;;;7.42;43.46
69780;BME280;57052;55.602;38.096;2023-04-08T05:57:37;101542.16;;;7.41;42.66
69780;BME280;57052;55.602;38.096;2023-04-08T06:00:07;101561.31;;;7.58;43.29
69780;BME280;57052;55.602;38.096;2023-04-08T06:02:33;101538.94;;;7.57;43.11
69780;BME280;57052;55.602;38.096;2023-04-08T06:04:59;101550.66;;;7.69;42.99
69780;BME280;57052;55.602;38.096;2023-04-08T06:07:25;101537.19;;;7.69;43.11
69780;BME280;57052;55.602;38.096;2023-04-08T06:09:51;101545.59;;;7.86;42.83
69780;BME280;57052;55.602;38.096;2023-04-08T06:12:16;101551.94;;;7.92;42.84
69780;BME280;57052;55.602;38.096;2023-04-08T06:14:42;101546.72;;;7.97;42.54
69780;BME280;57052;55.602;38.096;2023-04-08T06:17:07;101540.13;;;7.93;42.60
69780;BME280;57052;55.602;38.096;2023-04-08T06:19:33;101529.28;;;7.99;42.86
69780;BME280;57052;55.602;38.096;2023-04-08T06:21:59;101534.38;;;8.07;41.81
69780;BME280;57052;55.602;38.096;2023-04-08T06:24:25;101544.63;;;8.23;42.55
69780;BME280;57052;55.602;38.096;2023-04-08T06:26:52;101545.41;;;8.30;41.77
69780;BME280;57052;55.602;38.096;2023-04-08T06:29:18;101548.28;;;8.35;42.48
69780;BME280;57052;55.602;38.096;2023-04-08T06:31:44;101551.56;;;8.37;42.71
69780;BME280;57052;55.602;38.096;2023-04-08T06:34:10;101557.28;;;8.48;41.71
69780;BME280;57052;55.602;38.096;2023-04-08T06:36:35;101558.03;;;8.55;42.74
69780;BME280;57052;55.602;38.096;2023-04-08T06:39:01;101553.84;;;8.59;42.37
69780;BME280;57052;55.602;38.096;2023-04-08T06:41:26;101546.72;;;8.64;41.73
69780;BME280;57052;55.602;38.096;2023-04-08T06:43:52;101550.19;;;8.71;41.99
69780;BME280;57052;55.602;38.096;2023-04-08T06:46:17;101548.81;;;8.80;41.74
69780;BME280;57052;55.602;38.096;2023-04-08T06:48:43;101560.94;;;8.89;41.09
69780;BME280;57052;55.602;38.096;2023-04-08T06:51:09;101566.88;;;8.98;41.18
69780;BME280;57052;55.602;38.096;2023-04-08T06:53:34;101542.34;;;8.99;41.43
69780;BME280;57052;55.602;38.096;2023-04-08T06:56:00;101545.94;;;9.12;41.20
69780;BME280;57052;55.602;38.096;2023-04-08T06:58:26;101553.13;;;9.18;41.54
69780;BME280;57052;55.602;38.096;2023-04-08T07:00:53;101553.84;;;9.25;41.37
69780;BME280;57052;55.602;38.096;2023-04-08T07:03:20;101560.22;;;9.30;41.59
69780;BME280;57052;55.602;38.096;2023-04-08T07:05:46;101552.66;;;9.39;41.06
69780;BME280;57052;55.602;38.096;2023-04-08T07:08:12;101554.78;;;9.48;41.23
69780;BME280;57052;55.602;38.096;2023-04-08T07:10:38;101556.34;;;9.56;41.11
69780;BME280;57052;55.602;38.096;2023-04-08T07:13:03;101552.47;;;9.63;41.31
69780;BME280;57052;55.602;38.096;2023-04-08T07:15:29;101541.81;;;9.68;41.37
69780;BME280;57052;55.602;38.096;2023-04-08T07:17:55;101546.63;;;9.78;41.00
69780;BME280;57052;55.602;38.096;2023-04-08T07:20:22;101538.53;;;9.78;40.84
69780;BME280;57052;55.602;38.096;2023-04-08T07:22:48;101544.56;;;9.92;40.60
69780;BME280;57052;55.602;38.096;2023-04-08T07:25:14;101543.59;;;9.98;40.39
69780;BME280;57052;55.602;38.096;2023-04-08T07:27:40;101533.03;;;9.96;40.85
69780;BME280;57052;55.602;38.096;2023-04-08T07:30:06;101532.19;;;10.07;40.23
69780;BME280;57052;55.602;38.096;2023-04-08T07:32:32;101531.31;;;10.13;40.85
69780;BME280;57052;55.602;38.096;2023-04-08T07:34:59;101528.34;;;10.15;40.76
69780;BME280;57052;55.602;38.096;2023-04-08T07:37:26;101518.25;;;10.22;40.16
69780;BME280;57052;55.602;38.096;2023-04-08T07:39:51;101532.81;;;10.32;39.91
69780;BME280;57052;55.602;38.096;2023-04-08T07:42:17;101515.53;;;10.34;40.51
69780;BME280;57052;55.602;38.096;2023-04-08T07:44:44;101513.28;;;10.42;40.04
69780;BME280;57052;55.602;38.096;2023-04-08T07:47:10;101531.53;;;10.58;40.13
69780;BME280;57052;55.602;38.096;2023-04-08T07:49:36;101524.09;;;10.65;40.01
69780;BME280;57052;55.602;38.096;2023-04-08T07:52:06;101522.91;;;10.73;39.98
69780;BME280;57052;55.602;38.096;2023-04-08T07:54:31;101517.00;;;10.76;40.17
69780;BME280;57052;55.602;38.096;2023-04-08T07:57:00;101523.22;;;10.88;39.79
69780;BME280;57052;55.602;38.096;2023-04-08T07:59:27;101518.47;;;10.95;39.57
69780;BME280;57052;55.602;38.096;2023-04-08T08:01:53;101526.22;;;11.03;39.45
69780;BME280;57052;55.602;38.096;2023-04-08T08:04:18;101514.75;;;11.13;39.36
69780;BME280;57052;55.602;38.096;2023-04-08T08:06:44;101522.97;;;11.18;39.63
69780;BME280;57052;55.602;38.096;2023-04-08T08:09:10;101511.41;;;11.22;39.29
69780;BME280;57052;55.602;38.096;2023-04-08T08:11:36;101519.81;;;11.37;39.67
69780;BME280;57052;55.602;38.096;2023-04-08T08:14:01;101493.31;;;11.39;39.05
69780;BME280;57052;55.602;38.096;2023-04-08T08:16:29;101502.03;;;11.58;39.25
69780;BME280;57052;55.602;38.096;2023-04-08T08:18:56;101487.66;;;11.57;38.89
69780;BME280;57052;55.602;38.096;2023-04-08T08:21:22;101500.69;;;11.72;39.01
69780;BME280;57052;55.602;38.096;2023-04-08T08:23:47;101509.00;;;11.82;38.88
69780;BME280;57052;55.602;38.096;2023-04-08T08:26:13;101475.13;;;11.68;38.62
69780;BME280;57052;55.602;38.096;2023-04-08T08:28:39;101500.28;;;11.97;37.99
69780;BME280;57052;55.602;38.096;2023-04-08T08:31:05;101486.06;;;11.90;38.10
69780;BME280;57052;55.602;38.096;2023-04-08T08:33:31;101500.94;;;12.04;37.91
69780;BME280;57052;55.602;38.096;2023-04-08T08:35:56;101491.06;;;12.14;37.70
69780;BME280;57052;55.602;38.096;2023-04-08T08:38:23;101478.53;;;12.13;37.55
69780;BME280;57052;55.602;38.096;2023-04-08T08:40:58;101489.88;;;12.27;37.15
69780;BME280;57052;55.602;38.096;2023-04-08T08:43:25;101493.63;;;12.43;37.69
69780;BME280;57052;55.602;38.096;2023-04-08T08:45:50;101462.06;;;12.37;37.37
69780;BME280;57052;55.602;38.096;2023-04-08T08:48:16;101500.41;;;12.62;37.71
69780;BME280;57052;55.602;38.096;2023-04-08T08:50:42;101494.28;;;12.71;37.64
69780;BME280;57052;55.602;38.096;2023-04-08T08:53:08;101455.06;;;12.62;37.36
69780;BME280;57052;55.602;38.096;2023-04-08T08:55:34;101480.59;;;12.88;36.93
69780;BME280;57052;55.602;38.096;2023-04-08T08:58:00;101489.97;;;12.97;36.89
69780;BME280;57052;55.602;38.096;2023-04-08T09:05:51;101499.16;;;13.39;35.94
69780;BME280;57052;55.602;38.096;2023-04-08T09:08:37;101496.03;;;13.53;35.66
69780;BME280;57052;55.602;38.096;2023-04-08T09:11:19;101484.97;;;13.64;34.26
69780;BME280;57052;55.602;38.096;2023-04-08T09:13:48;101444.09;;;13.59;36.04
69780;BME280;57052;55.602;38.096;2023-04-08T09:16:15;101483.84;;;13.92;35.99
69780;BME280;57052;55.602;38.096;2023-04-08T09:18:43;101479.03;;;14.09;36.06
69780;BME280;57052;55.602;38.096;2023-04-08T09:21:11;101494.69;;;14.29;35.60
69780;BME280;57052;55.602;38.096;2023-04-08T09:23:47;101482.28;;;14.43;34.68
69780;BME280;57052;55.602;38.096;2023-04-08T09:26:16;101488.38;;;14.60;35.15
69780;BME280;57052;55.602;38.096;2023-04-08T09:28:43;101479.44;;;14.80;34.85
69780;BME280;57052;55.602;38.096;2023-04-08T09:31:23;101480.34;;;15.00;33.81
69780;BME280;57052;55.602;38.096;2023-04-08T09:33:50;101478.44;;;15.11;34.04
69780;BME280;57052;55.602;38.096;2023-04-08T09:36:17;101476.56;;;15.21;34.00
69780;BME280;57052;55.602;38.096;2023-04-08T09:38:43;101473.84;;;15.31;33.90
69780;BME280;57052;55.602;38.096;2023-04-08T09:41:12;101476.34;;;15.43;33.34
69780;BME280;57052;55.602;38.096;2023-04-08T09:43:41;101479.09;;;15.58;33.13
69780;BME280;57052;55.602;38.096;2023-04-08T09:46:10;101464.09;;;15.76;32.82
69780;BME280;57052;55.602;38.096;2023-04-08T09:48:41;101449.34;;;15.87;32.13
69780;BME280;57052;55.602;38.096;2023-04-08T09:51:14;101467.59;;;16.12;31.42
69780;BME280;57052;55.602;38.096;2023-04-08T09:53:47;101455.03;;;16.26;31.66
69780;BME280;57052;55.602;38.096;2023-04-08T09:56:16;101449.22;;;16.47;32.28
69780;BME280;57052;55.602;38.096;2023-04-08T10:01:19;101456.09;;;16.99;31.33
69780;BME280;57052;55.602;38.096;2023-04-08T10:03:54;101451.59;;;17.23;29.44
69780;BME280;57052;55.602;38.096;2023-04-08T10:06:26;101451.09;;;17.50;30.85
69780;BME280;57052;55.602;38.096;2023-04-08T10:08:54;101445.50;;;17.70;30.68
69780;BME280;57052;55.602;38.096;2023-04-08T10:11:20;101440.19;;;17.83;30.39
69780;BME280;57052;55.602;38.096;2023-04-08T10:13:45;101437.28;;;17.99;30.19
69780;BME280;57052;55.602;38.096;2023-04-08T10:18:41;101434.50;;;18.27;29.83
69780;BME280;57052;55.602;38.096;2023-04-08T10:21:37;101440.88;;;18.46;28.28
69780;BME280;57052;55.602;38.096;2023-04-08T10:24:09;101433.47;;;18.71;28.77
69780;BME280;57052;55.602;38.096;2023-04-08T10:31:47;101441.06;;;19.16;27.59
69780;BME280;57052;55.602;38.096;2023-04-08T10:34:18;101440.16;;;19.20;27.09
69780;BME280;57052;55.602;38.096;2023-04-08T10:36:45;101436.22;;;19.27;28.13
69780;BME280;57052;55.602;38.096;2023-04-08T10:39:14;101435.50;;;19.40;26.97
69780;BME280;57052;55.602;38.096;2023-04-08T10:41:44;101439.66;;;19.56;27.80
69780;BME280;57052;55.602;38.096;2023-04-08T10:44:24;101429.91;;;19.77;26.22
69780;BME280;57052;55.602;38.096;2023-04-08T10:46:52;101424.38;;;19.96;27.34
69780;BME280;57052;55.602;38.096;2023-04-08T10:49:18;101429.28;;;20.12;27.28
69780;BME280;57052;55.602;38.096;2023-04-08T10:51:44;101424.44;;;20.23;27.23
69780;BME280;57052;55.602;38.096;2023-04-08T10:54:14;101428.41;;;20.30;25.74
69780;BME280;57052;55.602;38.096;2023-04-08T10:56:49;101419.34;;;20.43;25.78
69780;BME280;57052;55.602;38.096;2023-04-08T10:59:27;101416.69;;;20.66;25.25
69780;BME280;57052;55.602;38.096;2023-04-08T11:01:53;101399.22;;;20.84;26.57
69780;BME280;57052;55.602;38.096;2023-04-08T11:04:20;101412.72;;;21.07;26.06
69780;BME280;57052;55.602;38.096;2023-04-08T11:06:48;101405.66;;;21.15;25.81
69780;BME280;57052;55.602;38.096;2023-04-08T11:09:14;101398.69;;;21.31;25.64
69780;BME280;57052;55.602;38.096;2023-04-08T11:11:44;101397.16;;;21.47;25.39
69780;BME280;57052;55.602;38.096;2023-04-08T11:14:11;101396.16;;;21.65;25.20
69780;BME280;57052;55.602;38.096;2023-04-08T11:16:38;101387.94;;;21.74;25.07
69780;BME280;57052;55.602;38.096;2023-04-08T11:19:04;101391.78;;;21.95;24.55
69780;BME280;57052;55.602;38.096;2023-04-08T11:21:31;101393.47;;;22.05;24.42
69780;BME280;57052;55.602;38.096;2023-04-08T11:23:59;101371.25;;;22.10;24.14
69780;BME280;57052;55.602;38.096;2023-04-08T11:26:26;101370.19;;;22.28;23.97
69780;BME280;57052;55.602;38.096;2023-04-08T11:28:53;101382.59;;;22.56;23.92
69780;BME280;57052;55.602;38.096;2023-04-08T11:31:20;101384.94;;;22.71;23.69
69780;BME280;57052;55.602;38.096;2023-04-08T11:33:47;101382.66;;;22.90;23.90
69780;BME280;57052;55.602;38.096;2023-04-08T11:36:14;101380.41;;;23.10;23.35
69780;BME280;57052;55.602;38.096;2023-04-08T11:38:42;101377.16;;;23.16;22.75
69780;BME280;57052;55.602;38.096;2023-04-08T11:41:08;101384.47;;;23.21;22.63
69780;BME280;57052;55.602;38.096;2023-04-08T11:43:34;101379.56;;;23.18;23.00
69780;BME280;57052;55.602;38.096;2023-04-08T11:46:10;101377.97;;;23.17;21.18
69780;BME280;57052;55.602;38.096;2023-04-08T11:48:37;101372.63;;;23.12;22.81
69780;BME280;57052;55.602;38.096;2023-04-08T11:51:06;101369.53;;;22.96;21.91
69780;BME280;57052;55.602;38.096;2023-04-08T11:53:36;101373.56;;;22.90;22.60
69780;BME280;57052;55.602;38.096;2023-04-08T11:56:18;101370.81;;;22.90;21.45
69780;BME280;57052;55.602;38.096;2023-04-08T11:58:45;101376.00;;;23.00;22.93
69780;BME280;57052;55.602;38.096;2023-04-08T12:01:12;101368.72;;;23.04;22.85
69780;BME280;57052;55.602;38.096;2023-04-08T12:03:38;101372.13;;;23.10;22.69
69780;BME280;57052;55.602;38.096;2023-04-08T12:06:04;101355.38;;;23.06;22.43
69780;BME280;57052;55.602;38.096;2023-04-08T12:08:31;101364.13;;;23.25;22.78
69780;BME280;57052;55.602;38.096;2023-04-08T12:10:57;101359.75;;;23.33;22.24
69780;BME280;57052;55.602;38.096;2023-04-08T12:13:22;101362.84;;;23.40;22.17
69780;BME280;57052;55.602;38.096;2023-04-08T12:15:48;101363.19;;;23.38;22.40
69780;BME280;57052;55.602;38.096;2023-04-08T12:18:13;101353.75;;;23.39;21.93
69780;BME280;57052;55.602;38.096;2023-04-08T12:20:39;101357.13;;;23.28;22.45
69780;BME280;57052;55.602;38.096;2023-04-08T12:23:04;101348.72;;;23.16;22.07
69780;BME280;57052;55.602;38.096;2023-04-08T12:25:32;101345.97;;;22.98;22.25
69780;BME280;57052;55.602;38.096;2023-04-08T12:27:58;101345.78;;;22.95;22.63
69780;BME280;57052;55.602;38.096;2023-04-08T12:30:23;101334.75;;;22.86;22.54
69780;BME280;57052;55.602;38.096;2023-04-08T12:32:49;101345.63;;;22.83;22.37
69780;BME280;57052;55.602;38.096;2023-04-08T12:35:14;101319.59;;;22.58;22.10
69780;BME280;57052;55.602;38.096;2023-04-08T12:37:40;101349.97;;;22.58;22.56
69780;BME280;57052;55.602;38.096;2023-04-08T12:40:06;101329.16;;;22.44;22.24
69780;BME280;57052;55.602;38.096;2023-04-08T12:42:32;101337.25;;;22.40;22.63
69780;BME280;57052;55.602;38.096;2023-04-08T12:44:59;101316.31;;;22.22;22.75
69780;BME280;57052;55.602;38.096;2023-04-08T12:47:25;101331.91;;;22.26;22.41
69780;BME280;57052;55.602;38.096;2023-04-08T12:49:50;101295.97;;;22.01;22.77
69780;BME280;57052;55.602;38.096;2023-04-08T12:52:16;101327.78;;;22.07;22.64
69780;BME280;57052;55.602;38.096;2023-04-08T12:54:43;101308.72;;;21.88;22.97
69780;BME280;57052;55.602;38.096;2023-04-08T12:57:08;101330.16;;;21.91;22.79
69780;BME280;57052;55.602;38.096;2023-04-08T12:59:34;101323.63;;;21.87;22.64
69780;BME280;57052;55.602;38.096;2023-04-08T13:02:00;101316.78;;;21.85;22.50